Time;durP1;ratioP1;P1;durP2;ratioP2;P2;SDS_P1;SDS_P2;PMS_P1;PMS_P2;Temp;Humidity;BMP_temperature;BMP_pressure;BME280_temperature;BME280_humidity;BME280_pressure;Samples;Min_cycle;Max_cycle;Signal;HPM_P1;HPM_P2
2023/10/02 00:01:48;;;;;;;26.83;17.98;;;16.70;99.90;;;;;;6156534;23;20028;-84
2023/10/02 00:04:24;;;;;;;28.50;25.02;;;16.70;99.90;;;;;;6155925;23;20049;-84
2023/10/02 00:07:05;;;;;;;26.02;17.58;;;16.60;99.90;;;;;;6156243;23;20042;-83
2023/10/02 00:09:34;;;;;;;24.77;21.85;;;16.60;99.90;;;;;;6156214;23;20388;-84
2023/10/02 00:12:11;;;;;;;32.85;29.15;;;16.60;99.90;;;;;;6156705;23;20082;-84
2023/10/02 00:14:42;;;;;;;26.30;19.10;;;16.50;99.90;;;;;;6131190;23;20075;-83
2023/10/02 00:17:18;;;;;;;30.23;22.42;;;16.50;99.90;;;;;;6131089;23;20087;-84
2023/10/02 00:19:49;;;;;;;29.40;23.83;;;16.50;99.90;;;;;;6155499;23;20009;-84
2023/10/02 00:25:02;;;;;;;27.33;19.98;;;16.40;99.90;;;;;;6156074;23;20440;-83
2023/10/02 00:27:31;;;;;;;24.38;17.92;;;16.40;99.90;;;;;;6131318;23;20058;-83
2023/10/02 00:30:00;;;;;;;33.03;29.48;;;16.30;99.90;;;;;;6131401;23;20447;-84
2023/10/02 00:32:29;;;;;;;27.15;19.65;;;16.30;99.90;;;;;;6130835;23;20017;-84
2023/10/02 00:35:01;;;;;;;24.33;18.98;;;16.40;99.90;;;;;;6131453;23;20017;-83
2023/10/02 00:37:43;;;;;;;25.10;18.58;;;16.30;99.90;;;;;;6131478;23;20009;-84
2023/10/02 00:40:12;;;;;;;47.50;43.42;;;16.30;99.90;;;;;;6131348;23;20013;-83
2023/10/02 00:42:38;;;;;;;31.15;24.88;;;16.30;99.90;;;;;;6131360;23;20384;-83
2023/10/02 00:45:04;;;;;;;34.20;29.80;;;16.30;99.90;;;;;;6131073;23;20013;-84
2023/10/02 00:47:40;;;;;;;33.22;29.00;;;16.30;99.90;;;;;;6131157;23;20067;-83
2023/10/02 00:50:16;;;;;;;37.15;29.52;;;16.40;99.90;;;;;;6156036;23;20024;-83
2023/10/02 00:52:43;;;;;;;32.35;25.30;;;16.40;99.90;;;;;;6131575;23;20009;-84
2023/10/02 00:55:12;;;;;;;29.25;19.55;;;16.50;99.90;;;;;;6131572;23;20098;-83
2023/10/02 00:57:42;;;;;;;35.10;31.00;;;16.40;99.90;;;;;;6131572;23;20032;-84
2023/10/02 01:00:17;;;;;;;27.60;18.75;;;16.40;99.90;;;;;;6131335;23;20048;-84
2023/10/02 01:02:51;;;;;;;34.10;29.63;;;16.50;99.90;;;;;;6131126;23;20335;-83
2023/10/02 01:05:21;;;;;;;31.83;20.58;;;16.50;99.90;;;;;;6131356;23;20064;-83
2023/10/02 01:07:53;;;;;;;35.33;21.63;;;16.50;99.90;;;;;;6131350;23;20013;-84
2023/10/02 01:10:19;;;;;;;29.85;22.85;;;16.50;99.90;;;;;;6155903;23;20013;-83
2023/10/02 01:12:53;;;;;;;31.50;20.02;;;16.50;99.90;;;;;;6131218;23;20017;-83
2023/10/02 01:15:20;;;;;;;34.53;21.50;;;16.60;99.90;;;;;;6131947;23;20106;-83
2023/10/02 01:17:50;;;;;;;33.00;22.63;;;16.50;99.90;;;;;;6130573;23;20009;-84
2023/10/02 01:20:32;;;;;;;32.63;22.90;;;16.40;99.90;;;;;;6155731;23;20475;-83
2023/10/02 01:23:16;;;;;;;34.83;23.10;;;16.30;99.90;;;;;;6131207;23;20016;-83
2023/10/02 01:25:46;;;;;;;35.22;25.55;;;16.30;99.90;;;;;;6131112;23;20013;-84
2023/10/02 01:28:13;;;;;;;34.15;28.88;;;16.30;99.90;;;;;;6131073;23;20406;-83
2023/10/02 01:30:44;;;;;;;30.50;22.63;;;16.30;99.90;;;;;;6129881;23;20091;-83
2023/10/02 01:33:14;;;;;;;31.90;21.85;;;16.30;99.90;;;;;;6131184;23;20024;-84
2023/10/02 01:35:48;;;;;;;34.15;26.10;;;16.30;99.90;;;;;;6155211;23;20020;-83
2023/10/02 01:38:26;;;;;;;32.03;22.95;;;16.30;99.90;;;;;;6155085;23;20088;-83
2023/10/02 01:41:03;;;;;;;31.40;21.92;;;16.30;99.90;;;;;;6155353;23;20100;-85
2023/10/02 01:43:50;;;;;;;34.22;22.55;;;16.30;99.90;;;;;;6155064;23;20009;-83
2023/10/02 01:46:22;;;;;;;34.65;21.55;;;16.30;99.90;;;;;;6153291;23;20100;-83
2023/10/02 01:48:48;;;;;;;33.67;22.55;;;16.30;99.90;;;;;;6155336;23;20027;-83
2023/10/02 01:51:15;;;;;;;29.45;22.88;;;16.30;99.90;;;;;;6130742;23;20009;-84
2023/10/02 01:53:54;;;;;;;38.50;30.58;;;16.30;99.90;;;;;;6131071;23;20321;-84
2023/10/02 01:56:22;;;;;;;35.40;23.73;;;16.20;99.90;;;;;;6154930;23;20012;-83
2023/10/02 01:58:49;;;;;;;39.97;24.52;;;16.20;99.90;;;;;;6131087;23;20013;-83
2023/10/02 02:01:15;;;;;;;31.77;20.95;;;16.10;99.90;;;;;;6130078;23;20009;-83
2023/10/02 02:03:48;;;;;;;36.00;29.10;;;16.20;99.90;;;;;;6155159;23;20013;-84
2023/10/02 02:06:21;;;;;;;34.22;21.55;;;16.00;99.90;;;;;;6130497;23;20011;-83
2023/10/02 02:09:01;;;;;;;33.45;23.77;;;16.00;99.90;;;;;;6130651;23;20020;-83
2023/10/02 02:11:30;;;;;;;33.40;22.25;;;16.00;99.90;;;;;;6155789;23;20020;-82
2023/10/02 02:13:59;;;;;;;34.20;24.27;;;16.00;99.90;;;;;;6130262;23;20020;-83
2023/10/02 02:16:33;;;;;;;28.98;20.85;;;16.00;99.90;;;;;;6130610;23;20404;-83
2023/10/02 02:19:05;;;;;;;30.38;21.20;;;16.00;99.90;;;;;;6155066;23;20017;-83
2023/10/02 02:21:32;;;;;;;31.63;21.45;;;16.00;99.90;;;;;;6130329;23;20023;-84
2023/10/02 02:24:06;;;;;;;33.85;27.85;;;16.00;99.90;;;;;;6155638;23;20013;-83
2023/10/02 02:26:40;;;;;;;30.92;22.90;;;16.00;99.90;;;;;;6130773;23;20013;-84
2023/10/02 02:29:23;;;;;;;38.08;28.67;;;16.00;99.90;;;;;;6129976;23;20024;-84
2023/10/02 02:31:50;;;;;;;33.78;28.90;;;15.90;99.90;;;;;;6155187;23;20020;-83
2023/10/02 02:34:16;;;;;;;35.72;22.38;;;15.90;99.90;;;;;;6155081;23;20013;-84
2023/10/02 02:36:43;;;;;;;35.42;22.08;;;15.90;99.90;;;;;;6130776;23;20020;-84
2023/10/02 02:39:16;;;;;;;35.15;26.02;;;15.80;99.90;;;;;;6154867;23;20020;-83
2023/10/02 02:41:46;;;;;;;30.67;22.02;;;15.80;99.90;;;;;;6155391;23;20228;-84
2023/10/02 02:44:36;;;;;;;31.70;23.02;;;15.70;99.90;;;;;;6130018;23;20091;-83
2023/10/02 02:47:08;;;;;;;38.63;28.27;;;15.70;99.90;;;;;;6130645;23;20075;-84
2023/10/02 02:49:51;;;;;;;36.47;26.80;;;15.60;99.90;;;;;;6155089;23;20009;-83
2023/10/02 02:52:33;;;;;;;43.65;35.55;;;15.60;99.90;;;;;;6130685;23;20017;-83
2023/10/02 02:55:12;;;;;;;35.95;28.23;;;15.60;99.90;;;;;;6154953;23;20013;-83
2023/10/02 02:57:39;;;;;;;32.05;21.92;;;15.60;99.90;;;;;;6129985;23;20471;-83
2023/10/02 03:02:53;;;;;;;39.58;34.35;;;15.60;99.90;;;;;;6156614;23;20020;-83
2023/10/02 03:05:21;;;;;;;41.55;25.90;;;15.70;99.90;;;;;;6132205;23;20014;-83
2023/10/02 03:07:54;;;;;;;39.30;25.83;;;15.70;99.90;;;;;;6156650;23;20099;-83
2023/10/02 03:10:23;;;;;;;35.83;24.10;;;15.70;99.90;;;;;;6132055;23;20041;-84
2023/10/02 03:12:50;;;;;;;38.13;25.10;;;15.80;99.90;;;;;;6155864;23;20013;-84
2023/10/02 03:15:18;;;;;;;41.78;25.63;;;15.80;99.90;;;;;;6156497;23;20009;-83
2023/10/02 03:17:45;;;;;;;32.22;23.83;;;15.80;99.90;;;;;;6156421;23;20009;-83
2023/10/02 03:20:24;;;;;;;33.65;22.75;;;15.80;99.90;;;;;;6131728;23;20103;-83
2023/10/02 03:22:55;;;;;;;38.30;28.05;;;15.90;99.90;;;;;;6132316;23;20009;-84
2023/10/02 03:25:41;;;;;;;46.55;29.42;;;15.90;99.90;;;;;;6132091;23;20021;-83
2023/10/02 03:28:16;;;;;;;40.22;30.92;;;16.00;99.90;;;;;;6131983;23;20040;-84
2023/10/02 03:30:47;;;;;;;36.95;25.42;;;15.90;99.90;;;;;;6131617;23;20067;-84
2023/10/02 03:33:20;;;;;;;34.90;23.65;;;15.90;99.90;;;;;;6131716;23;20005;-83
2023/10/02 03:36:24;;;;;;;34.00;23.23;;;15.80;99.90;;;;;;6132248;23;20009;-83
2023/10/02 03:38:46;;;;;;;38.17;25.25;;;15.90;99.90;;;;;;6151532;23;20017;-84
2023/10/02 03:41:13;;;;;;;37.03;26.30;;;15.80;99.90;;;;;;6131500;23;20024;-83
2023/10/02 03:43:46;;;;;;;39.88;25.02;;;15.70;99.90;;;;;;6131841;23;20352;-83
2023/10/02 03:46:15;;;;;;;35.97;26.77;;;15.60;99.90;;;;;;6131779;23;20289;-84
2023/10/02 03:48:42;;;;;;;32.63;26.40;;;15.60;99.90;;;;;;6131673;23;20031;-84
2023/10/02 03:51:10;;;;;;;40.83;29.60;;;15.60;99.90;;;;;;6131798;23;20104;-84
2023/10/02 03:53:35;;;;;;;36.67;24.08;;;15.50;99.90;;;;;;6156097;23;20390;-83
2023/10/02 03:58:52;;;;;;;43.80;37.83;;;15.40;99.90;;;;;;6156682;23;20021;-84
2023/10/02 04:01:31;;;;;;;38.47;30.52;;;15.40;99.90;;;;;;6131714;23;20013;-83
2023/10/02 04:06:35;;;;;;;45.28;34.08;;;15.30;99.90;;;;;;6156049;23;20460;-83
2023/10/02 04:11:42;;;;;;;46.90;38.05;;;15.20;99.90;;;;;;6156009;23;20437;-83
2023/10/02 04:14:17;;;;;;;44.90;31.88;;;15.20;99.90;;;;;;6132088;23;20100;-83
2023/10/02 04:17:00;;;;;;;45.30;29.17;;;15.30;99.90;;;;;;6131575;23;20412;-83
2023/10/02 04:19:26;;;;;;;45.75;36.08;;;15.30;99.90;;;;;;6156289;23;20013;-83
2023/10/02 04:21:53;;;;;;;42.95;32.53;;;15.30;99.90;;;;;;6156034;23;20546;-83
2023/10/02 04:24:26;;;;;;;39.08;34.45;;;15.20;99.90;;;;;;6131249;23;20005;-83
2023/10/02 04:27:14;;;;;;;38.95;32.88;;;15.20;99.90;;;;;;6131374;23;20013;-83
2023/10/02 04:29:48;;;;;;;44.45;32.95;;;15.20;99.90;;;;;;6131794;23;20028;-83
2023/10/02 04:32:19;;;;;;;41.45;29.63;;;15.20;99.90;;;;;;6131840;23;20036;-83
2023/10/02 04:34:50;;;;;;;44.00;33.95;;;15.10;99.90;;;;;;6131295;23;20540;-83
2023/10/02 04:37:19;;;;;;;41.58;34.35;;;15.10;99.90;;;;;;6156216;23;20039;-83
2023/10/02 04:42:57;;;;;;;45.40;35.13;;;15.00;99.90;;;;;;6155968;23;20020;-83
2023/10/02 04:45:21;;;;;;;44.17;34.42;;;15.00;99.90;;;;;;6155063;23;20395;-83
2023/10/02 04:47:54;;;;;;;50.78;37.17;;;15.00;99.90;;;;;;6130964;23;20109;-83
2023/10/02 04:52:56;;;;;;;41.65;34.35;;;15.00;99.90;;;;;;6155671;23;20021;-83
2023/10/02 04:55:42;;;;;;;44.33;34.93;;;15.00;99.90;;;;;;6131455;23;20017;-84
2023/10/02 04:58:19;;;;;;;43.50;38.08;;;15.00;99.90;;;;;;6131041;23;20091;-82
2023/10/02 05:03:31;;;;;;;46.20;34.42;;;15.00;99.90;;;;;;6159324;23;20069;-83
2023/10/02 05:06:03;;;;;;;50.20;35.30;;;15.00;99.90;;;;;;6135057;23;20063;-83
2023/10/02 05:08:34;;;;;;;45.45;35.38;;;15.10;99.90;;;;;;6134002;23;20020;-83
2023/10/02 05:11:08;;;;;;;49.50;34.50;;;15.10;99.90;;;;;;6136083;23;20060;-83
2023/10/02 05:13:59;;;;;;;43.72;34.20;;;15.20;99.90;;;;;;6136019;23;20013;-83
2023/10/02 05:16:38;;;;;;;43.35;37.40;;;15.20;99.90;;;;;;6135025;23;20023;-83
2023/10/02 05:19:09;;;;;;;44.63;32.20;;;15.20;99.90;;;;;;6135088;23;20071;-83
2023/10/02 05:21:39;;;;;;;42.70;33.90;;;15.20;99.90;;;;;;6135236;23;20168;-83
2023/10/02 05:24:07;;;;;;;42.85;35.28;;;15.20;99.90;;;;;;6135174;23;20009;-83
2023/10/02 05:26:34;;;;;;;44.08;31.63;;;15.20;99.90;;;;;;6135720;23;20017;-83
2023/10/02 05:29:01;;;;;;;47.30;37.40;;;15.20;99.90;;;;;;6135574;23;20032;-83
2023/10/02 05:31:30;;;;;;;48.55;34.05;;;15.20;99.90;;;;;;6135496;23;20071;-83
2023/10/02 05:33:57;;;;;;;46.25;34.08;;;15.20;99.90;;;;;;6135695;23;20340;-83
2023/10/02 05:36:23;;;;;;;47.95;35.30;;;15.20;99.90;;;;;;6136222;23;20013;-83
2023/10/02 05:41:46;;;;;;;50.08;34.67;;;15.20;99.90;;;;;;6160531;23;20642;-83
2023/10/02 05:44:20;;;;;;;42.67;30.25;;;15.20;99.90;;;;;;6135264;23;20017;-83
2023/10/02 05:46:57;;;;;;;46.08;33.63;;;15.20;99.90;;;;;;6134898;23;20017;-83
2023/10/02 05:49:24;;;;;;;43.97;36.28;;;15.20;99.90;;;;;;6135519;23;20016;-84
2023/10/02 05:51:59;;;;;;;50.90;37.88;;;15.20;99.90;;;;;;6162733;23;20013;-82
2023/10/02 05:54:26;;;;;;;47.85;34.72;;;15.30;99.90;;;;;;6136544;23;20013;-83
2023/10/02 05:57:08;;;;;;;43.10;34.85;;;15.20;99.90;;;;;;6161697;23;20013;-83
2023/10/02 05:59:44;;;;;;;41.65;28.92;;;15.40;99.90;;;;;;6137256;23;20048;-83
2023/10/02 06:02:19;;;;;;;50.08;35.80;;;15.20;99.90;;;;;;6160213;23;20017;-82
2023/10/02 06:04:49;;;;;;;45.05;31.23;;;15.20;99.90;;;;;;6159647;23;20018;-83
2023/10/02 06:07:39;;;;;;;48.08;33.50;;;15.10;99.90;;;;;;6158711;23;20017;-82
2023/10/02 06:10:07;;;;;;;46.22;28.52;;;15.30;99.90;;;;;;6159306;23;20023;-82
2023/10/02 06:12:33;;;;;;;39.22;26.00;;;15.30;99.90;;;;;;6156508;23;20017;-82
2023/10/02 06:15:04;;;;;;;43.85;33.45;;;15.40;99.90;;;;;;6157365;23;20092;-82
2023/10/02 06:17:32;;;;;;;42.78;27.95;;;15.50;99.90;;;;;;6131944;23;20013;-82
2023/10/02 06:19:59;;;;;;;41.40;26.63;;;15.50;99.90;;;;;;6131490;23;20016;-82
2023/10/02 06:22:24;;;;;;;41.25;31.48;;;15.60;99.90;;;;;;6156104;23;20037;-83
2023/10/02 06:24:51;;;;;;;42.38;25.33;;;15.60;99.90;;;;;;6133101;23;20033;-83
2023/10/02 06:27:17;;;;;;;45.60;34.92;;;15.70;99.90;;;;;;6133193;23;20369;-83
2023/10/02 06:29:57;;;;;;;41.17;28.25;;;15.80;99.90;;;;;;6133351;23;20074;-83
2023/10/02 06:32:23;;;;;;;42.80;24.58;;;15.80;99.90;;;;;;6134043;23;20440;-84
2023/10/02 06:34:57;;;;;;;50.13;30.17;;;15.80;99.90;;;;;;6135969;23;20029;-83
2023/10/02 06:37:30;;;;;;;43.55;31.73;;;15.90;99.90;;;;;;6135616;23;20351;-83
2023/10/02 06:40:06;;;;;;;35.55;25.90;;;16.00;99.90;;;;;;6134604;23;20015;-84
2023/10/02 06:42:33;;;;;;;39.60;28.73;;;16.10;99.90;;;;;;6160184;23;20118;-83
2023/10/02 06:45:02;;;;;;;39.67;24.35;;;16.10;99.90;;;;;;6159934;23;20028;-83
2023/10/02 06:47:30;;;;;;;41.35;25.65;;;16.20;99.90;;;;;;6135723;23;20013;-83
2023/10/02 06:50:03;;;;;;;35.45;24.85;;;16.20;99.90;;;;;;6134600;23;20317;-83
2023/10/02 06:52:32;;;;;;;37.30;24.13;;;16.30;99.90;;;;;;6137382;23;20020;-84
2023/10/02 06:55:00;;;;;;;37.55;23.35;;;16.30;99.90;;;;;;6135551;23;20020;-83
2023/10/02 06:57:26;;;;;;;44.45;32.50;;;16.40;99.90;;;;;;6160158;23;20463;-83
2023/10/02 06:59:52;;;;;;;37.65;25.60;;;16.40;99.90;;;;;;6136037;23;20013;-83
2023/10/02 07:02:26;;;;;;;36.92;24.00;;;16.30;99.90;;;;;;6160508;23;20009;-83
2023/10/02 07:04:56;;;;;;;35.10;25.30;;;16.40;99.90;;;;;;6160239;23;20358;-84
2023/10/02 07:07:25;;;;;;;33.88;23.17;;;16.50;99.90;;;;;;6136970;23;20019;-83
2023/10/02 07:10:07;;;;;;;38.50;24.13;;;16.50;99.90;;;;;;6136410;23;20020;-83
2023/10/02 07:12:40;;;;;;;38.47;25.00;;;16.40;99.90;;;;;;6134705;23;20013;-83
2023/10/02 07:15:22;;;;;;;34.55;23.23;;;16.70;99.90;;;;;;6135296;23;20024;-84
2023/10/02 07:17:48;;;;;;;33.88;23.25;;;16.70;99.90;;;;;;6160829;23;20091;-84
2023/10/02 07:20:20;;;;;;;40.17;23.15;;;16.80;99.90;;;;;;6135597;23;20064;-84
2023/10/02 07:22:51;;;;;;;31.85;21.98;;;16.90;99.90;;;;;;6135715;23;20440;-83
2023/10/02 07:25:20;;;;;;;38.92;22.50;;;17.00;99.90;;;;;;6135669;23;20644;-83
2023/10/02 07:27:48;;;;;;;39.38;25.10;;;17.00;99.90;;;;;;6136035;23;20040;-83
2023/10/02 07:30:24;;;;;;;33.92;22.77;;;17.00;99.90;;;;;;6135879;23;20097;-83
2023/10/02 07:32:53;;;;;;;34.13;22.20;;;17.10;99.90;;;;;;6133159;23;20383;-83
2023/10/02 07:35:21;;;;;;;34.85;21.98;;;17.20;99.90;;;;;;6159608;23;20187;-83
2023/10/02 07:37:58;;;;;;;33.63;21.85;;;17.30;99.90;;;;;;6134028;23;20036;-82
2023/10/02 07:40:48;;;;;;;40.60;23.27;;;17.30;99.90;;;;;;6134157;23;20017;-83
2023/10/02 07:43:18;;;;;;;35.50;23.70;;;17.40;99.90;;;;;;6134807;23;20071;-83
2023/10/02 07:46:36;;;;;;;35.55;24.20;;;17.50;99.90;;;;;;6133803;23;20452;-83
2023/10/02 07:48:36;;;;;;;39.30;23.83;;;17.60;99.90;;;;;;6143031;23;20028;-83
2023/10/02 07:51:03;;;;;;;39.63;24.35;;;17.80;99.90;;;;;;6161094;23;20013;-83
2023/10/02 07:53:43;;;;;;;36.45;23.40;;;17.90;99.90;;;;;;6161989;23;20017;-84
2023/10/02 07:56:12;;;;;;;34.60;23.50;;;18.00;99.90;;;;;;6137143;23;20048;-83
2023/10/02 07:58:39;;;;;;;36.50;23.70;;;18.10;99.90;;;;;;6136381;23;20084;-83
2023/10/02 08:01:11;;;;;;;38.10;26.50;;;18.30;99.90;;;;;;6155863;23;20006;-82
2023/10/02 08:03:44;;;;;;;35.63;25.95;;;18.30;99.90;;;;;;6155013;23;20005;-82
2023/10/02 08:11:41;;;;;;;43.55;26.10;;;18.50;99.90;;;;;;6157048;23;20163;-83
2023/10/02 08:14:34;;;;;;;37.85;27.33;;;18.50;99.90;;;;;;6156688;23;20040;-83
2023/10/02 08:17:00;;;;;;;40.92;25.90;;;18.60;99.90;;;;;;6156254;23;20031;-82
2023/10/02 08:19:27;;;;;;;44.28;27.63;;;18.60;99.90;;;;;;6157475;23;20012;-82
2023/10/02 08:21:53;;;;;;;35.92;26.13;;;18.70;99.90;;;;;;6132453;23;20108;-82
2023/10/02 08:24:20;;;;;;;32.60;25.65;;;18.70;99.90;;;;;;6156411;23;20048;-83
2023/10/02 08:26:47;;;;;;;37.33;26.15;;;18.80;99.90;;;;;;6157865;23;20400;-83
2023/10/02 08:29:14;;;;;;;41.97;28.63;;;18.80;99.90;;;;;;6157644;23;20013;-82
2023/10/02 08:31:49;;;;;;;37.85;25.98;;;18.80;99.90;;;;;;6156667;23;20017;-83
2023/10/02 08:34:20;;;;;;;39.92;29.67;;;18.90;99.90;;;;;;6132149;23;20394;-83
2023/10/02 08:37:04;;;;;;;39.25;26.02;;;18.90;99.90;;;;;;6131950;23;20017;-82
2023/10/02 08:39:33;;;;;;;42.28;27.27;;;18.90;99.90;;;;;;6131505;23;20013;-83
2023/10/02 08:41:59;;;;;;;40.05;28.02;;;19.00;99.90;;;;;;6130749;23;20041;-81
2023/10/02 08:44:25;;;;;;;39.03;26.23;;;19.10;99.90;;;;;;6154765;23;20009;-81
2023/10/02 08:46:55;;;;;;;41.08;26.90;;;19.20;99.90;;;;;;6153868;23;20036;-82
2023/10/02 08:49:25;;;;;;;40.72;28.30;;;19.20;99.90;;;;;;6129612;23;20016;-81
2023/10/02 08:51:51;;;;;;;39.85;28.92;;;19.20;99.90;;;;;;6153676;23;20091;-81
2023/10/02 08:54:18;;;;;;;40.35;29.17;;;19.20;99.90;;;;;;6153472;23;20013;-81
2023/10/02 08:56:44;;;;;;;43.67;29.38;;;19.40;99.90;;;;;;6128534;23;20056;-81
2023/10/02 08:59:15;;;;;;;40.83;27.00;;;19.60;99.90;;;;;;6128583;23;20015;-81
2023/10/02 09:01:41;;;;;;;40.78;26.02;;;19.70;99.90;;;;;;6153336;23;20047;-80
2023/10/02 09:07:25;;;;;;;42.20;26.83;;;19.90;99.90;;;;;;6088489;23;20023;-81
2023/10/02 09:10:24;;;;;;;40.45;26.33;;;19.90;99.90;;;;;;6065560;23;20022;-80
2023/10/02 09:13:24;;;;;;;40.80;27.80;;;19.90;99.90;;;;;;6065076;23;20050;-80
2023/10/02 09:15:53;;;;;;;41.30;28.77;;;20.00;99.90;;;;;;6088887;23;20021;-80
2023/10/02 09:19:07;;;;;;;37.60;25.40;;;20.00;99.90;;;;;;6065409;23;20382;-80
2023/10/02 09:21:37;;;;;;;37.65;25.98;;;20.00;99.90;;;;;;6087317;23;20065;-81
2023/10/02 09:24:18;;;;;;;39.28;26.88;;;20.10;99.90;;;;;;6065178;23;20117;-81
2023/10/02 09:26:45;;;;;;;34.88;24.17;;;20.20;99.90;;;;;;6065091;23;20361;-80
2023/10/02 09:29:16;;;;;;;35.45;24.35;;;20.20;99.90;;;;;;6064437;23;20026;-80
2023/10/02 09:31:43;;;;;;;35.55;24.60;;;20.30;99.90;;;;;;6089098;23;20010;-80
2023/10/02 09:34:16;;;;;;;38.58;26.40;;;20.50;99.90;;;;;;6065234;23;20017;-81
2023/10/02 09:36:52;;;;;;;35.00;26.73;;;20.60;99.90;;;;;;6064865;23;20394;-81
2023/10/02 09:39:31;;;;;;;33.88;23.98;;;20.70;99.90;;;;;;6065249;23;20022;-80
2023/10/02 09:42:07;;;;;;;37.30;23.05;;;20.70;99.90;;;;;;6138409;23;20071;-81
2023/10/02 09:44:40;;;;;;;33.47;25.80;;;21.00;99.90;;;;;;6153511;23;20017;-81
2023/10/02 09:47:08;;;;;;;37.78;28.33;;;21.20;99.90;;;;;;6130357;23;20412;-81
2023/10/02 09:49:48;;;;;;;34.47;26.95;;;21.30;99.90;;;;;;6129708;23;20273;-80
2023/10/02 09:52:23;;;;;;;35.55;26.33;;;21.40;99.90;;;;;;6154158;23;20092;-81
2023/10/02 09:55:07;;;;;;;35.75;29.20;;;21.40;99.90;;;;;;6129972;23;20024;-81
2023/10/02 09:57:49;;;;;;;34.35;28.25;;;21.40;99.90;;;;;;6128918;23;20088;-80
2023/10/02 10:00:36;;;;;;;37.67;29.27;;;21.40;99.90;;;;;;6154311;23;20013;-81
2023/10/02 10:03:22;;;;;;;38.85;27.05;;;21.30;99.90;;;;;;6129678;23;20009;-81
2023/10/02 10:06:06;;;;;;;31.92;25.80;;;21.30;99.90;;;;;;6154334;23;20013;-81
2023/10/02 10:11:42;;;;;;;33.30;24.92;;;21.40;99.90;;;;;;6150198;23;20452;-81
2023/10/02 10:14:35;;;;;;;36.08;27.65;;;21.50;99.90;;;;;;6129113;23;20013;-81
2023/10/02 10:17:21;;;;;;;36.97;29.35;;;21.60;99.90;;;;;;6129502;23;20014;-81
2023/10/02 10:22:50;;;;;;;35.72;28.20;;;21.70;99.90;;;;;;6154215;23;20021;-81
2023/10/02 10:27:54;;;;;;;34.28;26.50;;;21.80;99.90;;;;;;6153314;23;20075;-80
2023/10/02 10:30:28;;;;;;;39.58;30.25;;;21.90;99.90;;;;;;6154486;23;20016;-81
2023/10/02 10:35:40;;;;;;;33.10;27.70;;;22.20;99.90;;;;;;6153870;23;20571;-81
2023/10/02 10:38:21;;;;;;;35.13;30.40;;;22.30;99.90;;;;;;6129160;23;20017;-80
2023/10/02 10:40:54;;;;;;;38.20;26.65;;;22.30;99.90;;;;;;6154121;23;20587;-81
2023/10/02 10:43:26;;;;;;;;;;;22.40;99.90;;;;;;6130806;23;20589;-82
2023/10/02 10:45:55;;;;;;;34.50;26.13;;;22.60;99.90;;;;;;6155516;23;19916;-81
2023/10/02 10:48:22;;;;;;;36.00;23.60;;;22.60;99.90;;;;;;6129776;23;20019;-81
2023/10/02 10:50:59;;;;;;;33.67;24.27;;;22.60;99.90;;;;;;6155461;23;20049;-82
2023/10/02 10:53:32;;;;;;;35.03;29.80;;;22.60;99.90;;;;;;6129782;23;20009;-80
2023/10/02 10:56:17;;;;;;;37.13;29.45;;;22.50;99.90;;;;;;6153885;23;20013;-81
2023/10/02 10:58:44;;;;;;;30.48;27.17;;;22.40;99.90;;;;;;6154155;23;20067;-82
2023/10/02 11:01:16;;;;;;;36.95;30.27;;;22.40;99.90;;;;;;6130140;23;20013;-81
2023/10/02 11:03:54;;;;;;;34.03;29.05;;;22.50;99.90;;;;;;6130225;23;20017;-81
2023/10/02 11:06:23;;;;;;;34.30;25.33;;;22.60;99.90;;;;;;6130137;23;20067;-81
2023/10/02 11:09:16;;;;;;;34.53;26.77;;;22.60;99.90;;;;;;6130509;23;20048;-81
2023/10/02 11:11:53;;;;;;;35.47;24.45;;;22.70;99.90;;;;;;6129402;23;20092;-82
2023/10/02 11:14:34;;;;;;;34.55;28.90;;;22.70;99.90;;;;;;6154676;23;20440;-81
2023/10/02 11:17:04;;;;;;;37.95;29.10;;;22.80;99.90;;;;;;6130006;23;20013;-81
2023/10/02 11:19:43;;;;;;;36.15;26.50;;;22.90;99.90;;;;;;6156413;23;20388;-83
2023/10/02 11:22:15;;;;;;;46.22;32.05;;;23.00;99.90;;;;;;6164049;23;20036;-83
2023/10/02 11:24:53;;;;;;;35.37;29.50;;;23.00;99.90;;;;;;6137984;23;20107;-83
2023/10/02 11:27:19;;;;;;;37.72;27.90;;;23.10;99.90;;;;;;6136583;23;20028;-83
2023/10/02 11:30:01;;;;;;;39.42;30.55;;;23.10;99.90;;;;;;6160364;23;20019;-82
2023/10/02 11:32:59;;;;;;;36.80;27.73;;;23.10;99.90;;;;;;6131767;23;20013;-83
2023/10/02 11:35:28;;;;;;;35.67;29.23;;;23.10;99.90;;;;;;6156047;23;20020;-81
2023/10/02 11:37:56;;;;;;;34.25;28.10;;;23.20;99.90;;;;;;6131193;23;20376;-81
2023/10/02 11:40:25;;;;;;;36.70;30.35;;;23.30;99.90;;;;;;6128629;23;20024;-82
2023/10/02 11:42:54;;;;;;;38.28;29.70;;;23.40;99.90;;;;;;6131061;23;20464;-81
2023/10/02 11:45:19;;;;;;;32.90;27.30;;;23.50;99.90;;;;;;6130508;23;20361;-81
2023/10/02 11:47:45;;;;;;;39.45;29.92;;;23.60;99.90;;;;;;6131062;23;20021;-82
2023/10/02 11:50:15;;;;;;;37.45;31.40;;;23.60;99.90;;;;;;6155317;23;20027;-81
2023/10/02 11:52:41;;;;;;;36.92;31.52;;;23.50;99.90;;;;;;6130726;23;20009;-81
2023/10/02 11:55:07;;;;;;;39.20;31.25;;;23.60;99.90;;;;;;6129786;23;20013;-81
2023/10/02 11:57:33;;;;;;;38.42;29.73;;;23.50;99.90;;;;;;6130138;23;20009;-81
2023/10/02 12:00:08;;;;;;;39.72;31.55;;;23.50;99.90;;;;;;6155253;23;20072;-82
2023/10/02 12:02:36;;;;;;;39.78;35.45;;;23.30;99.90;;;;;;6131173;23;20036;-82
2023/10/02 12:05:02;;;;;;;36.47;31.92;;;23.20;99.90;;;;;;6130847;23;20436;-83
2023/10/02 12:07:27;;;;;;;41.83;35.30;;;23.20;99.90;;;;;;6155204;23;20072;-80
2023/10/02 12:09:53;;;;;;;39.90;33.83;;;23.10;99.90;;;;;;6154111;23;20024;-81
2023/10/02 12:12:19;;;;;;;44.67;36.55;;;23.10;99.90;;;;;;6130385;23;20015;-81
2023/10/02 12:14:45;;;;;;;39.85;31.33;;;23.10;99.90;;;;;;6130461;23;20017;-80
2023/10/02 12:17:14;;;;;;;40.80;32.85;;;23.10;99.90;;;;;;6130336;23;20038;-80
2023/10/02 12:19:40;;;;;;;43.05;32.35;;;23.20;99.90;;;;;;6130521;23;20013;-81
2023/10/02 12:22:07;;;;;;;39.63;33.42;;;23.20;99.90;;;;;;6130484;23;20092;-80
2023/10/02 12:24:34;;;;;;;35.63;30.50;;;23.20;99.90;;;;;;6129658;23;20013;-81
2023/10/02 12:27:00;;;;;;;35.10;30.25;;;23.20;99.90;;;;;;6130511;23;20431;-80
2023/10/02 12:29:26;;;;;;;32.80;28.85;;;23.30;99.90;;;;;;6130473;23;20024;-81
2023/10/02 12:31:53;;;;;;;41.50;31.92;;;23.30;99.90;;;;;;6130364;23;20009;-81
2023/10/02 12:34:19;;;;;;;41.33;31.92;;;23.40;99.90;;;;;;6129987;23;20036;-81
2023/10/02 12:36:45;;;;;;;36.47;31.20;;;23.60;99.90;;;;;;6130356;23;20440;-81
2023/10/02 12:39:14;;;;;;;41.17;32.78;;;23.60;99.90;;;;;;6129869;23;20076;-80
2023/10/02 12:41:42;;;;;;;37.58;31.40;;;23.60;99.90;;;;;;6130333;23;20021;-80
2023/10/02 12:44:08;;;;;;;39.55;35.22;;;23.50;99.90;;;;;;6149486;23;20044;-81
2023/10/02 12:46:43;;;;;;;39.42;30.10;;;23.40;99.90;;;;;;6124940;23;20018;-80
2023/10/02 12:49:10;;;;;;;41.70;31.40;;;23.40;99.90;;;;;;6149943;23;20024;-80
2023/10/02 12:51:35;;;;;;;40.15;30.27;;;23.40;99.90;;;;;;6124876;23;20579;-81
2023/10/02 12:54:01;;;;;;;41.55;31.95;;;23.50;99.90;;;;;;6125269;23;20017;-81
2023/10/02 12:56:27;;;;;;;38.25;31.52;;;23.50;99.90;;;;;;6125355;23;20017;-81
2023/10/02 12:58:54;;;;;;;39.53;30.55;;;23.40;99.90;;;;;;6125761;23;20389;-82
2023/10/02 13:01:24;;;;;;;40.92;33.63;;;23.40;99.90;;;;;;6125618;23;20006;-81
2023/10/02 13:04:00;;;;;;;45.30;32.30;;;23.50;99.90;;;;;;6126728;23;20445;-82
2023/10/02 13:06:29;;;;;;;40.53;31.20;;;23.40;99.90;;;;;;6125239;23;20017;-81
2023/10/02 13:09:01;;;;;;;35.25;31.58;;;23.40;99.90;;;;;;6125838;23;20073;-81
2023/10/02 13:11:27;;;;;;;36.58;31.00;;;23.40;99.90;;;;;;6125355;23;20045;-81
2023/10/02 13:13:53;;;;;;;38.72;30.42;;;23.50;99.90;;;;;;6124834;23;20009;-81
2023/10/02 13:16:19;;;;;;;40.17;29.35;;;23.50;99.90;;;;;;6124747;23;20097;-82
2023/10/02 13:18:46;;;;;;;37.50;29.42;;;23.50;99.90;;;;;;6125002;23;20018;-81
2023/10/02 13:21:19;;;;;;;38.15;30.63;;;23.40;99.90;;;;;;6124620;23;20077;-81
2023/10/02 13:23:46;;;;;;;40.10;33.22;;;23.40;99.90;;;;;;6124781;23;20009;-81
2023/10/02 13:26:16;;;;;;;41.03;32.65;;;23.30;99.90;;;;;;6124025;23;20018;-80
2023/10/02 13:28:48;;;;;;;40.05;32.22;;;23.30;99.90;;;;;;6123039;23;20020;-81
2023/10/02 13:31:16;;;;;;;37.70;33.27;;;23.30;99.90;;;;;;6147953;23;20013;-80
2023/10/02 13:33:47;;;;;;;37.35;29.25;;;23.30;99.90;;;;;;6147679;23;20009;-81
2023/10/02 13:36:14;;;;;;;50.20;32.17;;;23.20;99.90;;;;;;6122416;23;20027;-81
2023/10/02 13:38:41;;;;;;;35.28;30.17;;;23.20;99.90;;;;;;6123015;23;20399;-81